Time;durP1;ratioP1;P1;durP2;ratioP2;P2;SDS_P1;SDS_P2;PMS_P1;PMS_P2;Temp;Humidity;BMP_temperature;BMP_pressure;BME280_temperature;BME280_humidity;BME280_pressure;Samples;Min_cycle;Max_cycle;Signal;HPM_P1;HPM_P2
2021/05/31 00:00:15;;;;;;;4.03;1.30;;;;;;;13.84;64.20;100543.30;1736118;82;21069;-67
2021/05/31 00:02:43;;;;;;;4.05;1.05;;;;;;;13.81;64.30;100540.10;1739615;80;21055;-67
2021/05/31 00:05:12;;;;;;;5.00;1.00;;;;;;;13.85;64.50;100539.69;1705987;83;21099;-67
2021/05/31 00:07:38;;;;;;;4.37;1.20;;;;;;;13.92;63.90;100534.17;1751920;80;21110;-67
2021/05/31 00:10:08;;;;;;;7.00;1.82;;;;;;;13.87;64.41;100535.55;1744639;81;21098;-67
2021/05/31 00:12:35;;;;;;;3.37;1.27;;;;;;;13.78;64.63;100545.66;1710594;81;21121;-67
2021/05/31 00:15:03;;;;;;;7.00;1.67;;;;;;;13.72;64.71;100537.81;1743124;81;21078;-67
2021/05/31 00:17:30;;;;;;;6.08;1.72;;;;;;;13.70;64.68;100534.45;1734173;80;21054;-67
2021/05/31 00:19:56;;;;;;;6.60;1.35;;;;;;;13.67;64.93;100534.26;1676475;83;21911;-67
2021/05/31 00:22:25;;;;;;;3.55;1.30;;;;;;;13.64;65.11;100532.38;1701113;83;21123;-67
2021/05/31 00:24:53;;;;;;;5.80;1.50;;;;;;;13.61;65.08;100528.69;1716620;83;21579;-67
2021/05/31 00:27:20;;;;;;;4.30;1.30;;;;;;;13.66;65.10;100523.81;1702683;82;21090;-67
2021/05/31 00:29:46;;;;;;;4.17;1.07;;;;;;;13.64;65.02;100526.59;1711381;82;21432;-67
2021/05/31 00:32:13;;;;;;;3.27;1.27;;;;;;;13.59;65.11;100533.29;1707608;82;21807;-67
2021/05/31 00:34:42;;;;;;;5.15;1.55;;;;;;;13.49;64.96;100531.95;1717351;82;21154;-67
2021/05/31 00:37:08;;;;;;;6.40;1.05;;;;;;;13.41;65.53;100535.27;1733391;82;21108;-67
2021/05/31 00:39:36;;;;;;;8.93;1.45;;;;;;;13.37;65.46;100539.18;1737557;82;21782;-67
2021/05/31 00:42:03;;;;;;;4.90;1.30;;;;;;;13.29;65.12;100540.31;1723434;82;21550;-67
2021/05/31 00:44:30;;;;;;;5.33;1.55;;;;;;;13.28;65.27;100541.27;1710404;82;21609;-67
2021/05/31 00:46:56;;;;;;;4.30;1.25;;;;;;;13.36;65.45;100542.32;1663710;84;21064;-67
2021/05/31 00:49:27;;;;;;;7.78;1.92;;;;;;;13.40;65.46;100538.05;1714104;83;21589;-67
2021/05/31 00:51:53;;;;;;;3.95;1.32;;;;;;;13.36;65.43;100541.46;1734562;81;21090;-67
2021/05/31 00:54:20;;;;;;;5.12;1.60;;;;;;;13.30;65.46;100537.53;1743609;82;21051;-67
2021/05/31 00:56:48;;;;;;;3.27;1.20;;;;;;;13.26;65.41;100540.09;1735236;82;21100;-67
2021/05/31 00:59:14;;;;;;;3.52;1.27;;;;;;;13.18;65.56;100544.75;1738172;81;21047;-67
2021/05/31 01:01:41;;;;;;;3.83;1.20;;;;;;;13.15;65.89;100541.05;1722937;80;21115;-67
2021/05/31 01:04:08;;;;;;;3.22;1.25;;;;;;;13.19;66.08;100541.12;1704136;82;21088;-67
2021/05/31 01:06:38;;;;;;;5.10;1.82;;;;;;;13.27;65.84;100540.95;1727574;82;21056;-67
2021/05/31 01:09:14;;;;;;;5.62;1.42;;;;;;;13.27;65.84;100546.23;1698227;82;21097;-67
2021/05/31 01:12:05;;;;;;;4.08;1.20;;;;;;;13.27;65.88;100543.59;1722305;81;21075;-67
2021/05/31 01:15:00;;;;;;;4.83;1.62;;;;;;;13.28;65.97;100546.09;1706741;82;21076;-67
2021/05/31 01:17:43;;;;;;;4.20;1.07;;;;;;;13.29;65.86;100546.92;1711719;82;28143;-67
2021/05/31 01:20:33;;;;;;;3.62;1.30;;;;;;;13.22;65.94;100551.91;1716839;81;21083;-67
2021/05/31 01:23:02;;;;;;;3.40;1.10;;;;;;;13.24;65.83;100547.81;1698144;84;21100;-67
2021/05/31 01:25:55;;;;;;;9.93;1.72;;;;;;;13.28;66.03;100545.23;1679544;83;21112;-67
2021/05/31 01:29:02;;;;;;;4.78;1.37;;;;;;;13.30;65.86;100544.64;1732026;82;21110;-67
2021/05/31 01:31:42;;;;;;;5.17;1.22;;;;;;;13.24;65.78;100549.14;1700244;82;21605;-67
2021/05/31 01:34:10;;;;;;;4.35;1.22;;;;;;;13.16;66.19;100547.16;1679481;84;21064;-68
2021/05/31 01:36:47;;;;;;;3.35;1.40;;;;;;;13.14;66.12;100542.50;1730003;82;21434;-66
2021/05/31 01:39:18;;;;;;;4.30;1.02;;;;;;;13.11;66.14;100544.95;1682070;84;21096;-67
2021/05/31 01:41:45;;;;;;;4.22;1.60;;;;;;;13.10;65.83;100541.95;1705913;82;21130;-68
2021/05/31 01:44:13;;;;;;;2.92;1.00;;;;;;;13.17;65.87;100539.59;1719318;81;21573;-68
2021/05/31 01:46:40;;;;;;;4.37;1.32;;;;;;;13.22;65.54;100540.02;1710126;83;21074;-68
2021/05/31 01:49:08;;;;;;;4.33;1.52;;;;;;;13.23;65.68;100546.13;1727679;80;21762;-68
2021/05/31 01:51:37;;;;;;;11.70;2.00;;;;;;;13.24;65.92;100554.42;1709585;82;21594;-68
2021/05/31 01:54:07;;;;;;;8.65;1.60;;;;;;;13.24;65.61;100551.78;1693983;82;21100;-68
2021/05/31 01:56:35;;;;;;;3.80;1.30;;;;;;;13.20;65.55;100546.77;1722648;80;21107;-68
2021/05/31 01:59:06;;;;;;;4.80;1.57;;;;;;;13.13;65.51;100549.61;1738407;82;21083;-68
2021/05/31 02:01:33;;;;;;;5.37;1.20;;;;;;;13.09;65.88;100550.83;1719013;81;21146;-68
2021/05/31 02:04:00;;;;;;;3.47;1.32;;;;;;;13.14;65.72;100553.08;1717750;82;21094;-68
2021/05/31 02:06:27;;;;;;;4.70;1.67;;;;;;;13.14;65.47;100551.75;1696158;82;21076;-68
2021/05/31 02:08:53;;;;;;;4.62;1.70;;;;;;;13.12;65.82;100555.84;1713276;82;21096;-68
2021/05/31 02:11:47;;;;;;;4.05;1.57;;;;;;;13.12;65.80;100559.81;1750987;80;21062;-68
2021/05/31 02:14:58;;;;;;;3.52;1.20;;;;;;;13.13;65.65;100562.81;1693776;81;21056;-68
2021/05/31 02:17:57;;;;;;;5.58;1.82;;;;;;;13.05;65.35;100566.61;1726396;80;21694;-68
2021/05/31 02:20:24;;;;;;;4.97;1.37;;;;;;;12.93;65.43;100567.20;1714415;80;21091;-68
2021/05/31 02:22:54;;;;;;;6.25;1.52;;;;;;;12.96;65.70;100563.44;1732779;80;21087;-68
2021/05/31 02:25:21;;;;;;;5.37;1.90;;;;;;;12.94;65.92;100571.49;1690504;83;21108;-68
2021/05/31 02:27:49;;;;;;;3.70;1.40;;;;;;;12.92;66.41;100570.80;1746137;80;21079;-68
2021/05/31 02:30:17;;;;;;;4.62;1.47;;;;;;;12.89;66.22;100565.78;1723969;81;21084;-68
2021/05/31 02:33:03;;;;;;;5.83;2.10;;;;;;;12.82;66.43;100577.36;1742027;80;21079;-67
2021/05/31 02:35:35;;;;;;;9.85;1.98;;;;;;;12.78;66.92;100572.50;1728270;80;21147;-68
2021/05/31 02:38:02;;;;;;;5.95;1.37;;;;;;;12.79;67.09;100572.37;1726517;81;21053;-68
2021/05/31 02:40:29;;;;;;;5.15;1.52;;;;;;;12.88;67.27;100583.94;1771876;80;21092;-68
2021/05/31 02:42:58;;;;;;;4.55;1.70;;;;;;;12.91;66.85;100573.57;1732191;80;21657;-68
2021/05/31 02:45:25;;;;;;;5.72;1.75;;;;;;;12.87;66.95;100584.06;1737610;82;21529;-68
2021/05/31 02:47:53;;;;;;;4.95;1.70;;;;;;;12.82;67.17;100581.81;1695825;83;21064;-68
2021/05/31 02:50:19;;;;;;;5.08;1.60;;;;;;;12.80;67.13;100580.63;1727962;80;22245;-68
2021/05/31 02:52:46;;;;;;;4.70;1.50;;;;;;;12.82;67.02;100585.28;1715107;82;21993;-68
2021/05/31 02:55:16;;;;;;;5.47;1.80;;;;;;;12.91;66.76;100581.03;1699273;83;21092;-68
2021/05/31 02:57:42;;;;;;;5.03;1.67;;;;;;;12.98;66.84;100587.94;1729407;81;21589;-68
2021/05/31 03:00:11;;;;;;;4.60;1.90;;;;;;;12.99;66.87;100585.63;1758954;80;21123;-68
2021/05/31 03:02:40;;;;;;;4.95;2.17;;;;;;;13.02;67.22;100584.05;1736733;80;21098;-68
2021/05/31 03:05:09;;;;;;;6.12;1.75;;;;;;;13.03;67.08;100584.41;1736911;81;21097;-67
2021/05/31 03:07:35;;;;;;;6.65;1.92;;;;;;;12.99;66.94;100584.31;1702827;80;21092;-68
2021/05/31 03:10:01;;;;;;;4.15;1.62;;;;;;;12.99;66.68;100582.98;1703863;82;21048;-68
2021/05/31 03:12:27;;;;;;;5.90;1.80;;;;;;;13.05;67.01;100580.31;1712631;80;21071;-68
2021/05/31 03:14:55;;;;;;;4.95;1.95;;;;;;;13.14;66.82;100586.09;1738811;80;21101;-68
2021/05/31 03:17:21;;;;;;;4.87;2.10;;;;;;;13.14;66.79;100588.25;1732018;82;21376;-68
2021/05/31 03:19:48;;;;;;;5.05;2.20;;;;;;;13.17;66.88;100585.34;1721660;80;21763;-67
2021/05/31 03:22:15;;;;;;;4.95;1.85;;;;;;;13.21;66.47;100584.58;1683225;82;21063;-68
2021/05/31 03:24:41;;;;;;;5.37;2.10;;;;;;;13.22;66.30;100586.76;1711227;82;21119;-67
2021/05/31 03:27:09;;;;;;;4.35;1.80;;;;;;;13.25;66.27;100581.21;1682412;82;21094;-68
2021/05/31 03:29:35;;;;;;;3.72;1.37;;;;;;;13.30;65.96;100589.06;1723688;82;21087;-68
2021/05/31 03:32:02;;;;;;;4.75;1.67;;;;;;;13.38;65.75;100591.91;1698855;82;21103;-68
2021/05/31 03:34:28;;;;;;;5.20;1.92;;;;;;;13.45;65.41;100593.98;1745963;80;21576;-68
2021/05/31 03:36:55;;;;;;;4.35;1.80;;;;;;;13.48;65.26;100586.64;1687836;83;21067;-68
2021/05/31 03:39:21;;;;;;;6.05;2.65;;;;;;;13.51;65.33;100594.27;1711599;83;21110;-68
2021/05/31 03:41:48;;;;;;;4.45;1.82;;;;;;;13.56;64.77;100592.05;1711675;82;21091;-68
2021/05/31 03:44:14;;;;;;;5.80;2.35;;;;;;;13.55;64.91;100595.69;1712927;82;21588;-68
2021/05/31 03:46:41;;;;;;;8.25;2.12;;;;;;;13.47;64.74;100596.03;1705733;83;21079;-68
2021/05/31 03:49:07;;;;;;;4.20;1.65;;;;;;;13.46;64.93;100596.50;1705322;82;21091;-68
2021/05/31 03:51:34;;;;;;;6.00;1.35;;;;;;;13.51;65.26;100588.98;1724103;80;21107;-68
2021/05/31 03:54:00;;;;;;;6.55;1.72;;;;;;;13.64;65.20;100583.45;1704092;82;21143;-67
2021/05/31 03:56:27;;;;;;;4.00;1.42;;;;;;;13.79;64.42;100585.70;1733997;81;21095;-68
2021/05/31 03:58:54;;;;;;;6.30;1.50;;;;;;;13.92;64.15;100579.64;1693310;83;21565;-68
2021/05/31 04:01:21;;;;;;;5.15;1.57;;;;;;;13.94;64.07;100575.87;1695059;82;21345;-69
2021/05/31 04:03:47;;;;;;;4.58;1.60;;;;;;;13.98;63.58;100571.12;1714877;82;21111;-69
2021/05/31 04:11:45;;;;;;;3.42;1.60;;;;;;;14.10;63.22;100576.64;1718166;80;21114;-66
2021/05/31 04:14:14;;;;;;;5.30;1.80;;;;;;;14.17;62.77;100576.05;1689388;82;21094;-66
2021/05/31 04:16:46;;;;;;;7.30;1.77;;;;;;;14.20;62.50;100573.95;1736340;81;21045;-66
2021/05/31 04:19:14;;;;;;;4.70;1.60;;;;;;;14.27;62.98;100577.72;1729954;80;22280;-67
2021/05/31 04:21:44;;;;;;;3.58;1.40;;;;;;;14.43;62.48;100567.85;1720845;81;21099;-67
2021/05/31 04:24:11;;;;;;;5.55;1.70;;;;;;;14.57;62.40;100571.84;1742654;80;21111;-68
2021/05/31 04:26:38;;;;;;;7.03;1.85;;;;;;;14.71;62.34;100578.55;1707323;82;21107;-68
2021/05/31 04:29:08;;;;;;;7.37;3.87;;;;;;;14.78;61.93;100588.08;1709443;82;21182;-67
2021/05/31 04:31:35;;;;;;;6.53;2.45;;;;;;;14.83;61.68;100579.20;1727788;82;22394;-67
2021/05/31 04:34:03;;;;;;;4.70;1.77;;;;;;;14.86;61.33;100582.38;1731595;82;21092;-66
2021/05/31 04:36:30;;;;;;;7.45;2.83;;;;;;;14.88;61.43;100584.89;1734363;80;21116;-67
2021/05/31 04:38:59;;;;;;;3.65;1.30;;;;;;;14.91;60.90;100587.25;1743056;81;21127;-71
2021/05/31 04:41:26;;;;;;;5.78;2.35;;;;;;;14.97;59.23;100577.38;1702852;82;21738;-70
2021/05/31 04:43:52;;;;;;;3.70;1.47;;;;;;;14.90;59.69;100586.90;1747797;80;21090;-68
2021/05/31 04:46:19;;;;;;;7.60;1.80;;;;;;;14.84;59.67;100587.00;1745274;80;21016;-67
2021/05/31 04:48:46;;;;;;;4.70;1.50;;;;;;;14.81;59.83;100582.45;1730981;81;20921;-67
2021/05/31 04:51:12;;;;;;;5.80;1.60;;;;;;;14.72;59.75;100588.14;1705725;82;21066;-68
2021/05/31 04:53:40;;;;;;;5.67;2.27;;;;;;;14.67;59.60;100591.22;1723659;80;21053;-68
2021/05/31 04:56:09;;;;;;;5.55;2.27;;;;;;;14.62;60.04;100587.34;1708190;82;21594;-67
2021/05/31 04:58:35;;;;;;;5.92;2.52;;;;;;;14.63;60.27;100594.32;1691304;82;20960;-67
2021/05/31 05:01:02;;;;;;;4.40;1.87;;;;;;;14.63;60.29;100585.87;1720192;80;21769;-67
2021/05/31 05:03:28;;;;;;;20.85;2.05;;;;;;;14.64;60.20;100594.18;1725517;82;22345;-67
2021/05/31 05:05:55;;;;;;;3.47;1.10;;;;;;;14.68;59.88;100594.22;1687349;82;21026;-69
2021/05/31 05:08:22;;;;;;;3.52;1.40;;;;;;;14.70;60.27;100587.96;1696681;81;21144;-69
2021/05/31 05:10:49;;;;;;;3.10;1.10;;;;;;;14.80;60.67;100593.55;1694627;82;21131;-69
2021/05/31 05:13:15;;;;;;;4.72;1.55;;;;;;;14.96;60.04;100595.59;1712832;82;21608;-68
2021/05/31 05:15:43;;;;;;;4.28;1.37;;;;;;;15.18;59.95;100598.81;1717987;81;21143;-68
2021/05/31 05:18:11;;;;;;;6.47;1.30;;;;;;;15.33;60.17;100601.34;1718432;81;21466;-69
2021/05/31 05:20:37;;;;;;;4.67;1.42;;;;;;;15.39;58.89;100599.90;1745608;80;21601;-68
2021/05/31 05:23:04;;;;;;;3.90;1.27;;;;;;;15.30;58.44;100599.45;1745673;81;21075;-68
2021/05/31 05:25:31;;;;;;;4.15;1.42;;;;;;;15.18;58.27;100597.48;1746782;80;21079;-67
2021/05/31 05:27:57;;;;;;;3.17;1.00;;;;;;;15.08;58.72;100603.33;1747015;81;21693;-69
2021/05/31 05:30:32;;;;;;;5.78;0.95;;;;;;;15.04;58.61;100600.97;1738113;80;21061;-69
2021/05/31 05:33:00;;;;;;;3.52;1.42;;;;;;;15.06;58.57;100599.50;1706784;81;21732;-69
2021/05/31 05:35:28;;;;;;;3.65;1.10;;;;;;;15.03;58.20;100602.47;1724205;80;21099;-70
2021/05/31 05:38:11;;;;;;;3.65;0.90;;;;;;;15.00;58.65;100599.61;1750457;81;21091;-70
2021/05/31 05:41:04;;;;;;;4.53;1.15;;;;;;;14.99;58.74;100606.37;1709904;81;21093;-68
2021/05/31 05:43:44;;;;;;;3.45;1.35;;;;;;;14.96;59.57;100602.22;1716513;80;21068;-68
2021/05/31 05:48:51;;;;;;;3.35;1.40;;;;;;;15.18;58.65;100605.44;1794643;77;22594;-67
2021/05/31 05:51:19;;;;;;;7.00;2.10;;;;;;;15.14;58.79;100599.61;1761997;79;21036;-67
2021/05/31 05:53:48;;;;;;;3.40;1.40;;;;;;;15.14;58.53;100600.11;1731509;80;21086;-66
2021/05/31 05:56:18;;;;;;;3.85;1.40;;;;;;;15.02;58.87;100602.94;1686182;82;21063;-67
2021/05/31 05:58:45;;;;;;;3.98;1.50;;;;;;;14.94;59.22;100600.69;1714985;81;21008;-67
2021/05/31 06:01:12;;;;;;;4.60;1.80;;;;;;;14.89;59.02;100605.09;1759370;80;21555;-68
2021/05/31 06:03:38;;;;;;;3.17;1.30;;;;;;;14.90;59.48;100605.45;1711180;82;20968;-67
2021/05/31 06:06:06;;;;;;;6.25;2.12;;;;;;;14.93;58.77;100601.66;1710835;83;21143;-68
2021/05/31 06:08:32;;;;;;;4.25;1.47;;;;;;;14.92;59.10;100594.20;1739051;80;21001;-67
2021/05/31 06:10:59;;;;;;;4.33;1.90;;;;;;;14.90;59.16;100600.14;1743978;80;21588;-67
2021/05/31 06:13:26;;;;;;;4.35;1.75;;;;;;;14.88;58.63;100602.58;1736525;80;21384;-68
2021/05/31 06:15:53;;;;;;;4.97;1.77;;;;;;;14.83;58.80;100599.89;1764315;80;21068;-68
2021/05/31 06:18:20;;;;;;;4.00;1.87;;;;;;;14.79;58.76;100608.27;1761081;80;21085;-68
2021/05/31 06:20:49;;;;;;;6.53;1.90;;;;;;;14.70;59.22;100608.65;1741493;79;21072;-68
2021/05/31 06:23:15;;;;;;;4.28;1.77;;;;;;;14.67;59.79;100612.41;1743409;80;21633;-68
2021/05/31 06:25:42;;;;;;;6.25;1.87;;;;;;;14.78;59.52;100598.17;1726110;80;21103;-68
2021/05/31 06:28:08;;;;;;;5.25;2.00;;;;;;;14.87;59.39;100605.73;1677553;82;21122;-68
2021/05/31 06:30:35;;;;;;;7.83;2.47;;;;;;;14.88;59.15;100602.11;1680443;83;21433;-68
2021/05/31 06:33:03;;;;;;;7.83;2.35;;;;;;;14.89;59.14;100605.09;1709225;82;21122;-68
2021/05/31 06:35:30;;;;;;;4.35;1.80;;;;;;;14.89;59.26;100607.73;1679141;82;21638;-67
2021/05/31 06:37:56;;;;;;;7.40;1.75;;;;;;;14.90;58.64;100604.12;1692367;82;21128;-68
2021/05/31 06:40:24;;;;;;;4.20;1.72;;;;;;;14.82;57.84;100615.92;1692228;82;21139;-68
2021/05/31 06:42:52;;;;;;;4.22;1.42;;;;;;;14.70;58.80;100621.89;1689261;82;21710;-67
2021/05/31 06:45:23;;;;;;;6.20;1.60;;;;;;;14.64;58.31;100627.28;1659269;83;22230;-67
2021/05/31 06:47:51;;;;;;;4.15;1.52;;;;;;;14.58;57.75;100616.39;1689747;83;21129;-68
2021/05/31 06:50:18;;;;;;;5.47;1.40;;;;;;;14.50;56.69;100618.42;1738619;81;21127;-68
2021/05/31 06:52:45;;;;;;;4.05;1.80;;;;;;;14.43;57.25;100619.97;1732079;80;21089;-68
2021/05/31 06:55:13;;;;;;;5.50;1.55;;;;;;;14.44;57.49;100625.59;1732815;81;21468;-68
2021/05/31 06:57:40;;;;;;;6.75;1.70;;;;;;;14.44;57.94;100627.78;1731886;80;21407;-67
2021/05/31 07:00:09;;;;;;;4.40;1.82;;;;;;;14.53;58.95;100630.55;1714937;81;21020;-67
2021/05/31 07:02:36;;;;;;;4.55;1.90;;;;;;;14.67;58.18;100625.64;1730826;82;21088;-68
2021/05/31 07:05:07;;;;;;;5.33;1.40;;;;;;;14.78;58.20;100627.80;1737015;81;21597;-67
2021/05/31 07:07:35;;;;;;;2.52;1.07;;;;;;;14.78;57.14;100623.33;1716055;81;21126;-67
2021/05/31 07:10:06;;;;;;;2.87;1.32;;;;;;;14.71;57.67;100624.04;1707512;82;21120;-67
2021/05/31 07:12:33;;;;;;;4.17;1.80;;;;;;;14.67;57.81;100627.47;1732401;80;21057;-67
2021/05/31 07:15:03;;;;;;;3.83;1.50;;;;;;;14.68;58.52;100626.00;1737031;80;21088;-68
2021/05/31 07:17:27;;;;;;;4.65;1.37;;;;;;;14.78;58.47;100625.16;1733826;80;21110;-67
2021/05/31 07:19:54;;;;;;;5.33;1.60;;;;;;;14.85;57.76;100624.42;1700635;82;21092;-68
2021/05/31 07:22:23;;;;;;;4.45;1.22;;;;;;;14.88;57.59;100619.80;1737011;80;21147;-68
2021/05/31 07:24:50;;;;;;;3.47;1.00;;;;;;;14.95;58.22;100617.77;1667291;83;21131;-68
2021/05/31 07:27:17;;;;;;;3.35;1.40;;;;;;;15.04;57.62;100616.87;1685559;83;21195;-68
2021/05/31 07:29:43;;;;;;;4.70;1.52;;;;;;;15.11;56.47;100620.27;1682434;83;21077;-68
2021/05/31 07:32:10;;;;;;;3.92;1.32;;;;;;;15.10;57.38;100631.88;1678237;83;22372;-67
2021/05/31 07:34:36;;;;;;;3.80;1.37;;;;;;;15.10;57.73;100626.58;1732482;80;21072;-67
2021/05/31 07:37:03;;;;;;;3.80;1.57;;;;;;;15.17;57.34;100633.77;1705048;82;21061;-68
2021/05/31 07:39:30;;;;;;;3.10;0.90;;;;;;;15.22;57.61;100635.49;1729151;80;21200;-68
2021/05/31 07:41:57;;;;;;;3.75;1.57;;;;;;;15.23;57.42;100633.20;1704880;82;21688;-66
2021/05/31 07:44:25;;;;;;;3.35;1.17;;;;;;;15.20;56.37;100628.69;1670808;83;21052;-66
2021/05/31 07:46:52;;;;;;;3.15;1.10;;;;;;;15.13;56.16;100639.51;1680355;83;21721;-67
2021/05/31 07:49:18;;;;;;;7.47;1.20;;;;;;;15.07;57.09;100642.77;1681278;83;21438;-67
2021/05/31 07:51:47;;;;;;;2.95;0.85;;;;;;;15.09;57.71;100640.80;1691815;83;21144;-68
2021/05/31 07:54:15;;;;;;;3.37;0.90;;;;;;;15.15;57.14;100630.95;1698240;83;20981;-68
2021/05/31 07:56:43;;;;;;;5.85;1.02;;;;;;;15.25;57.23;100635.70;1707513;82;21117;-67
2021/05/31 07:59:09;;;;;;;1.98;0.62;;;;;;;15.39;56.46;100637.02;1683551;83;21113;-68
2021/05/31 08:01:36;;;;;;;3.95;0.75;;;;;;;15.51;56.30;100637.65;1696261;82;21079;-68
2021/05/31 08:04:05;;;;;;;2.65;0.88;;;;;;;15.60;55.65;100633.62;1669045;83;21129;-68
2021/05/31 08:06:34;;;;;;;3.27;0.90;;;;;;;15.60;55.30;100634.09;1679631;84;21003;-68
2021/05/31 08:09:01;;;;;;;3.65;0.93;;;;;;;15.62;55.24;100642.76;1695393;82;22259;-68
2021/05/31 08:11:29;;;;;;;2.83;0.88;;;;;;;15.67;54.77;100645.80;1696861;84;21102;-68
2021/05/31 08:13:57;;;;;;;1.95;0.60;;;;;;;15.68;54.17;100644.79;1715608;83;21383;-68
2021/05/31 08:16:25;;;;;;;1.77;0.60;;;;;;;15.66;54.34;100648.59;1721822;81;21113;-68
2021/05/31 08:18:53;;;;;;;2.05;0.62;;;;;;;15.66;54.51;100650.74;1729517;81;21113;-68
2021/05/31 08:21:20;;;;;;;1.82;0.62;;;;;;;15.70;54.60;100649.95;1726150;81;21097;-68
2021/05/31 08:23:46;;;;;;;1.90;0.70;;;;;;;15.72;54.35;100654.64;1723523;81;21103;-68
2021/05/31 08:26:17;;;;;;;1.32;0.42;;;;;;;15.72;54.23;100654.13;1721800;81;21086;-68
2021/05/31 08:28:42;;;;;;;2.62;0.75;;;;;;;15.71;54.07;100653.78;1716114;81;21107;-69
2021/05/31 08:31:09;;;;;;;2.30;0.70;;;;;;;15.72;53.57;100654.13;1720479;82;21956;-68
2021/05/31 08:33:36;;;;;;;2.15;0.53;;;;;;;15.65;53.32;100661.03;1723573;82;21572;-67
2021/05/31 08:36:03;;;;;;;1.60;0.62;;;;;;;15.54;53.65;100657.25;1726649;82;21605;-67
2021/05/31 08:38:31;;;;;;;2.45;0.70;;;;;;;15.51;53.91;100661.52;1724202;81;21076;-69
2021/05/31 08:41:00;;;;;;;1.92;0.60;;;;;;;15.51;54.30;100658.37;1724863;82;21084;-68
2021/05/31 08:43:27;;;;;;;2.00;0.50;;;;;;;15.58;54.41;100659.94;1730497;81;21069;-67
2021/05/31 08:45:54;;;;;;;2.35;0.70;;;;;;;15.63;53.93;100660.31;1729700;82;23149;-67
2021/05/31 08:48:23;;;;;;;2.15;0.80;;;;;;;15.67;54.10;100666.16;1712610;81;21107;-67
2021/05/31 08:50:49;;;;;;;2.27;0.60;;;;;;;15.75;54.38;100671.11;1728141;82;21511;-67
2021/05/31 08:53:16;;;;;;;1.92;0.60;;;;;;;15.87;54.37;100665.57;1729389;81;21127;-67
2021/05/31 08:55:44;;;;;;;1.80;0.50;;;;;;;15.90;54.91;100666.60;1728665;81;21159;-67
2021/05/31 08:58:11;;;;;;;2.17;0.50;;;;;;;15.94;55.23;100674.13;1728584;81;23131;-67
2021/05/31 09:00:37;;;;;;;2.90;0.70;;;;;;;16.03;54.61;100671.05;1736176;81;21072;-68
2021/05/31 09:03:06;;;;;;;3.70;0.78;;;;;;;16.14;53.76;100670.83;1732824;81;21608;-67
2021/05/31 09:05:40;;;;;;;1.98;0.50;;;;;;;16.20;53.76;100665.39;1735209;82;21093;-68
2021/05/31 09:08:10;;;;;;;2.08;0.50;;;;;;;16.29;54.13;100664.96;1735099;82;21642;-67
2021/05/31 09:10:47;;;;;;;2.27;0.80;;;;;;;16.35;53.62;100668.34;1734899;81;21303;-67
2021/05/31 09:13:30;;;;;;;1.95;0.60;;;;;;;16.39;52.74;100665.73;1729734;82;21116;-67
2021/05/31 09:16:19;;;;;;;1.40;0.42;;;;;;;16.41;51.86;100670.86;1724924;81;21081;-67
2021/05/31 09:18:58;;;;;;;1.92;0.60;;;;;;;16.29;51.44;100659.18;1709529;82;21065;-67
2021/05/31 09:21:30;;;;;;;2.05;0.50;;;;;;;16.13;51.39;100668.33;1703341;82;21641;-68
2021/05/31 09:24:07;;;;;;;1.85;0.53;;;;;;;16.00;51.64;100679.81;1727308;81;21075;-67
2021/05/31 09:26:56;;;;;;;1.37;0.45;;;;;;;15.94;51.34;100675.95;1706928;81;20934;-67
2021/05/31 09:29:23;;;;;;;2.20;0.65;;;;;;;15.89;52.18;100683.53;1699938;82;21876;-67
2021/05/31 09:32:04;;;;;;;2.42;0.65;;;;;;;15.92;52.82;100678.75;1736501;81;20905;-67
2021/05/31 09:34:32;;;;;;;2.85;0.80;;;;;;;16.01;53.23;100681.48;1724430;81;21111;-68
2021/05/31 09:37:00;;;;;;;1.50;0.55;;;;;;;16.12;53.53;100675.93;1726954;82;21053;-67
2021/05/31 09:39:36;;;;;;;2.35;0.70;;;;;;;16.19;53.35;100681.00;1720865;81;21567;-67
2021/05/31 09:42:13;;;;;;;1.22;0.53;;;;;;;16.31;53.37;100677.11;1724741;82;21138;-67
2021/05/31 09:44:41;;;;;;;2.15;0.90;;;;;;;16.38;52.24;100685.30;1732493;81;21119;-67
2021/05/31 09:47:08;;;;;;;2.40;0.68;;;;;;;16.41;51.92;100688.13;1728788;81;21135;-68
2021/05/31 09:49:36;;;;;;;2.33;0.72;;;;;;;16.38;51.38;100684.48;1732634;80;21605;-68
2021/05/31 09:52:04;;;;;;;1.98;0.80;;;;;;;16.23;52.00;100686.33;1713686;82;21091;-68
2021/05/31 09:54:40;;;;;;;4.20;0.42;;;;;;;16.14;51.99;100695.22;1746690;81;21542;-68
2021/05/31 09:57:31;;;;;;;3.10;0.62;;;;;;;16.11;52.77;100692.86;1714659;82;21145;-66
2021/05/31 10:00:20;;;;;;;1.92;0.50;;;;;;;16.16;53.05;100688.77;1740168;82;21136;-66
2021/05/31 10:07:56;;;;;;;2.33;0.55;;;;;;;16.18;53.00;100693.09;1736339;80;21381;-67
2021/05/31 10:10:19;;;;;;;1.45;0.57;;;;;;;16.19;52.77;100694.74;1711584;82;21640;-66
2021/05/31 10:12:45;;;;;;;3.47;0.80;;;;;;;16.09;52.94;100693.02;1738470;80;21107;-65
2021/05/31 10:15:12;;;;;;;1.42;0.50;;;;;;;16.05;53.04;100690.30;1739171;80;21544;-67
2021/05/31 10:17:39;;;;;;;4.45;0.80;;;;;;;16.06;53.95;100699.13;1729149;82;21123;-66
2021/05/31 10:20:07;;;;;;;1.67;0.50;;;;;;;16.12;53.80;100694.05;1742864;81;21056;-66
2021/05/31 10:22:34;;;;;;;2.02;0.65;;;;;;;16.23;53.55;100690.81;1742882;82;21104;-66
2021/05/31 10:25:01;;;;;;;2.33;0.65;;;;;;;16.32;52.83;100688.56;1735390;80;21093;-67
2021/05/31 10:27:29;;;;;;;2.40;0.82;;;;;;;16.35;53.26;100690.91;1715225;81;20985;-67
2021/05/31 10:29:57;;;;;;;2.10;0.70;;;;;;;16.39;52.56;100690.11;1734096;80;21011;-67
2021/05/31 10:32:24;;;;;;;1.82;0.55;;;;;;;16.41;52.59;100692.97;1713028;82;21131;-67
2021/05/31 10:34:56;;;;;;;4.72;0.70;;;;;;;16.46;52.28;100697.83;1736737;80;22242;-67
2021/05/31 10:37:30;;;;;;;1.87;0.53;;;;;;;16.44;53.07;100699.30;1713388;82;21044;-67
2021/05/31 10:40:11;;;;;;;2.08;0.70;;;;;;;16.46;52.61;100698.66;1716931;82;21076;-67
2021/05/31 10:42:55;;;;;;;2.25;0.50;;;;;;;16.51;52.30;100701.68;1723089;82;21748;-67
2021/05/31 10:45:28;;;;;;;2.60;0.90;;;;;;;16.57;52.04;100698.89;1743494;82;21087;-67
2021/05/31 10:48:09;;;;;;;5.80;0.72;;;;;;;16.63;52.06;100702.27;1734070;81;21073;-67
2021/05/31 10:50:47;;;;;;;1.65;0.65;;;;;;;16.65;51.73;100690.16;1736109;81;21065;-67
2021/05/31 10:53:27;;;;;;;2.85;0.85;;;;;;;16.66;51.11;100686.50;1745403;80;21139;-68
2021/05/31 10:55:59;;;;;;;1.90;0.78;;;;;;;16.58;51.73;100689.12;1733488;80;21079;-67
2021/05/31 10:58:35;;;;;;;2.42;0.62;;;;;;;16.61;52.09;100684.33;1751729;80;22423;-68
2021/05/31 11:01:10;;;;;;;5.17;0.60;;;;;;;16.76;52.13;100681.09;1751271;80;21597;-66
2021/05/31 11:04:03;;;;;;;2.00;0.62;;;;;;;16.87;51.36;100680.36;1738416;80;21981;-67
2021/05/31 11:06:42;;;;;;;1.67;0.45;;;;;;;16.96;51.46;100685.23;1747614;81;21179;-67
2021/05/31 11:09:19;;;;;;;3.92;0.80;;;;;;;17.09;50.78;100687.47;1721298;81;21433;-67
2021/05/31 11:11:55;;;;;;;1.57;0.53;;;;;;;17.14;50.00;100683.02;1748969;80;21680;-67
2021/05/31 11:17:15;;;;;;;1.12;0.30;;;;;;;17.16;50.78;100685.84;1730273;81;21048;-68
2021/05/31 11:19:48;;;;;;;5.37;0.90;;;;;;;17.27;49.87;100684.75;1737310;81;22295;-67
2021/05/31 11:22:28;;;;;;;1.87;0.50;;;;;;;17.38;49.96;100674.31;1746676;80;21128;-67
2021/05/31 11:24:59;;;;;;;2.58;0.68;;;;;;;17.50;49.71;100686.34;1747532;80;21122;-68
2021/05/31 11:27:31;;;;;;;2.08;0.60;;;;;;;17.53;50.02;100685.17;1717850;81;21103;-68
2021/05/31 11:29:59;;;;;;;1.32;0.30;;;;;;;17.52;49.86;100683.02;1747939;80;21074;-68
2021/05/31 11:32:26;;;;;;;5.10;0.50;;;;;;;17.52;48.57;100685.68;1745687;80;21361;-68
2021/05/31 11:34:58;;;;;;;5.85;0.75;;;;;;;17.43;48.56;100687.95;1718262;81;21426;-68
2021/05/31 11:37:25;;;;;;;1.47;0.30;;;;;;;17.26;49.30;100687.91;1717842;81;21069;-68
2021/05/31 11:39:52;;;;;;;1.47;0.40;;;;;;;17.13;48.82;100686.18;1750123;81;21080;-68
2021/05/31 11:42:19;;;;;;;1.22;0.28;;;;;;;17.10;50.29;100683.83;1746236;81;21111;-68
2021/05/31 11:44:53;;;;;;;2.55;0.62;;;;;;;17.14;50.31;100682.52;1746526;81;22294;-68
2021/05/31 11:47:21;;;;;;;3.17;0.37;;;;;;;17.23;51.21;100684.23;1747166;81;21120;-68
2021/05/31 11:49:48;;;;;;;2.33;0.60;;;;;;;17.39;50.67;100678.14;1744729;80;21548;-67
2021/05/31 11:52:14;;;;;;;1.62;0.30;;;;;;;17.57;49.78;100673.23;1711197;82;21088;-67